NCAR-RAP Real-Time Weather Data

Output produced by METARs form (16 August 2018  19:24 UTC)
found at http://weather.rap.ucar.edu/surface/
 
RJOW 161000Z 05004KT 010V110 9999 FEW005 SCT015 BKN025 26/24 Q1010
RJOW 160900Z 02003KT 340V070 9999 -SHRA FEW005 SCT025 BKN035 25/25 Q1010
RJOW 160800Z 13003KT 080V170 6000 -SHRA BR FEW005 SCT008 BKN025 25/25 Q1009
RJOW 160741Z VRB02KT 5000 R11/0550V1600U SHRA BR FEW005 SCT008 BKN015 25/24 Q1009 RMK 1ST005 4ST008 5CU015 A2982
RJOW 160733Z VRB02KT 3000 R11/0600V1000D +SHRA FEW005 SCT008 BKN015 25/24 Q1009 RMK 1ST005 4ST008 5CU015 A2982 9999E
RJOW 160723Z 02004KT 320V070 1500 R11/0900V1200N +SHRA FEW005 SCT015 BKN020 25/24 Q1010 RMK 1ST005 4CU015 6CU020 A2982
RJOW 160718Z 01004KT 320V070 4000 R11/0900VP2000D SHRA FEW005 SCT015 BKN020 25/25 Q1010 RMK 1ST005 4CU015 6CU020 A2982
RJOW 160716Z 01004KT 320V070 7000 R11/0900VP2000D SHRA FEW005 SCT015 BKN020 25/24 Q1010 RMK 1ST005 4CU015 6CU020 A2982
RJOW 160700Z 01007KT 340V050 9999 R11/1400VP2000D -SHRA FEW008 SCT015 FEW020TCU BKN030 26/25 Q1009
RJOW 160600Z 29004KT 250V320 9999 FEW010 SCT035 BKN070 28/25 Q1009
RJOW 160500Z 30003KT 9999 FEW010 SCT035 BKN045 27/25 Q1009
RJOW 160400Z 31004KT 9999 -SHRA FEW010 SCT025 BKN035 27/25 Q1009
RJOW 160300Z 30007KT 9999 -SHRA FEW015 SCT030 BKN070 30/24 Q1009
RJOW 160200Z 31006KT 9999 -SHRA FEW015 FEW025CB SCT035 BKN080 29/25 Q1009
RJOW 160100Z 31004KT 9999 FEW020 SCT030 BKN130 30/25 Q1009
RJOW 160000Z 29004KT 250V350 9999 FEW030 SCT080 BKN130 29/24 Q1009
RJOW 152300Z VRB02KT 9999 VCSH FEW020 BKN120 28/24 Q1008
RJOW 151000Z 16013KT 120V180 9999 FEW015 SCT070 BKN120 29/23 Q1008
RJOW 150900Z 16012KT 9999 FEW020 SCT070 BKN100 29/24 Q1007
RJOW 150800Z 15012KT 120V180 9999 FEW020 SCT070 BKN100 28/24 Q1007
RJOW 150700Z 15011KT 9999 -SHRA FEW015 SCT030 BKN040 28/25 Q1007
RJOW 150600Z 14008KT 110V170 9999 -SHRA FEW015 SCT030 BKN100 29/25 Q1008
RJOW 150500Z 17011KT 9999 FEW015 SCT100 BKN150 31/24 Q1008
RJOW 150400Z 14012KT 120V180 9999 FEW015 SCT100 BKN140 31/24 Q1008
RJOW 150300Z 16011KT 120V180 9999 -SHRA FEW010 SCT035 BKN100 31/24 Q1009
RJOW 150200Z 16007KT 120V190 9999 -SHRA FEW015 SCT040 BKN120 31/23 Q1009
RJOW 150100Z 14005KT 080V190 9999 FEW025 SCT045 BKN150 31/24 Q1009
RJOW 150000Z 09003KT 050V150 9999 -SHRA FEW030 SCT045 BKN130 29/24 Q1009
RJOW 142300Z VRB02KT 9999 FEW020 SCT045 BKN130 27/24 Q1008
RJOW 141000Z 30003KT 280V340 9999 FEW030 BKN/// 28/27 Q1010
RJOW 140900Z 31004KT 270V360 9999 FEW030 SCT045 BKN/// 29/27 Q1009
RJOW 140800Z 31005KT 260V360 9999 FEW030 BKN/// 30/26 Q1009